sensor_id;sensor_type;location;lat;lon;timestamp;temperature;humidity
2463;DHT22;1243;54.298;10.172;2023-09-19T00:00:46;16.80;99.90
2463;DHT22;1243;54.298;10.172;2023-09-19T00:03:12;16.80;99.90
2463;DHT22;1243;54.298;10.172;2023-09-19T00:05:39;16.80;99.90
2463;DHT22;1243;54.298;10.172;2023-09-19T00:08:05;16.80;99.90
2463;DHT22;1243;54.298;10.172;2023-09-19T00:10:33;16.80;99.90
2463;DHT22;1243;54.298;10.172;2023-09-19T00:13:04;16.90;99.90
2463;DHT22;1243;54.298;10.172;2023-09-19T00:15:37;16.90;99.90
2463;DHT22;1243;54.298;10.172;2023-09-19T00:18:04;17.00;99.90
2463;DHT22;1243;54.298;10.172;2023-09-19T00:20:35;16.90;99.90
2463;DHT22;1243;54.298;10.172;2023-09-19T00:23:00;16.90;99.90
2463;DHT22;1243;54.298;10.172;2023-09-19T00:25:35;16.90;99.90
2463;DHT22;1243;54.298;10.172;2023-09-19T00:28:01;17.00;99.90
2463;DHT22;1243;54.298;10.172;2023-09-19T00:30:27;17.00;99.90
2463;DHT22;1243;54.298;10.172;2023-09-19T00:32:53;16.90;99.90
2463;DHT22;1243;54.298;10.172;2023-09-19T00:35:19;16.90;99.90
2463;DHT22;1243;54.298;10.172;2023-09-19T00:37:44;16.90;99.90
2463;DHT22;1243;54.298;10.172;2023-09-19T00:40:11;16.90;99.90
2463;DHT22;1243;54.298;10.172;2023-09-19T00:42:41;16.90;99.90
2463;DHT22;1243;54.298;10.172;2023-09-19T00:45:11;16.90;99.90
2463;DHT22;1243;54.298;10.172;2023-09-19T00:47:48;16.90;99.90
2463;DHT22;1243;54.298;10.172;2023-09-19T00:50:20;16.90;99.90
2463;DHT22;1243;54.298;10.172;2023-09-19T00:52:48;16.90;99.90
2463;DHT22;1243;54.298;10.172;2023-09-19T00:55:16;16.90;99.90
2463;DHT22;1243;54.298;10.172;2023-09-19T00:57:45;16.90;99.90
2463;DHT22;1243;54.298;10.172;2023-09-19T01:00:11;17.00;99.90
2463;DHT22;1243;54.298;10.172;2023-09-19T01:02:44;17.00;99.90
2463;DHT22;1243;54.298;10.172;2023-09-19T01:05:10;16.90;99.90
2463;DHT22;1243;54.298;10.172;2023-09-19T01:07:38;16.90;99.90
2463;DHT22;1243;54.298;10.172;2023-09-19T01:10:12;16.90;99.90
2463;DHT22;1243;54.298;10.172;2023-09-19T01:29:49;16.80;99.90
2463;DHT22;1243;54.298;10.172;2023-09-19T01:32:19;16.80;99.90
2463;DHT22;1243;54.298;10.172;2023-09-19T01:34:52;16.80;99.90
2463;DHT22;1243;54.298;10.172;2023-09-19T01:37:20;16.70;99.90
2463;DHT22;1243;54.298;10.172;2023-09-19T01:42:41;16.80;99.90
2463;DHT22;1243;54.298;10.172;2023-09-19T01:45:30;16.80;99.90
2463;DHT22;1243;54.298;10.172;2023-09-19T01:48:28;16.80;99.90
2463;DHT22;1243;54.298;10.172;2023-09-19T01:51:06;16.90;99.90
2463;DHT22;1243;54.298;10.172;2023-09-19T01:56:20;16.80;99.90
2463;DHT22;1243;54.298;10.172;2023-09-19T01:58:53;16.80;99.90
2463;DHT22;1243;54.298;10.172;2023-09-19T02:01:23;16.80;99.90
2463;DHT22;1243;54.298;10.172;2023-09-19T02:03:50;16.80;99.90
2463;DHT22;1243;54.298;10.172;2023-09-19T02:06:17;16.70;99.90
2463;DHT22;1243;54.298;10.172;2023-09-19T02:08:43;16.70;99.90
2463;DHT22;1243;54.298;10.172;2023-09-19T02:11:11;16.70;99.90
2463;DHT22;1243;54.298;10.172;2023-09-19T02:13:37;16.70;99.90
2463;DHT22;1243;54.298;10.172;2023-09-19T02:16:03;16.70;99.90
2463;DHT22;1243;54.298;10.172;2023-09-19T02:18:30;16.70;99.90
2463;DHT22;1243;54.298;10.172;2023-09-19T02:20:56;16.60;99.90
2463;DHT22;1243;54.298;10.172;2023-09-19T02:23:24;16.50;99.90
2463;DHT22;1243;54.298;10.172;2023-09-19T02:25:54;16.50;99.90
2463;DHT22;1243;54.298;10.172;2023-09-19T02:28:20;16.50;99.90
2463;DHT22;1243;54.298;10.172;2023-09-19T02:30:48;16.50;99.90
2463;DHT22;1243;54.298;10.172;2023-09-19T02:33:14;16.50;99.90
2463;DHT22;1243;54.298;10.172;2023-09-19T02:35:40;16.50;99.90
2463;DHT22;1243;54.298;10.172;2023-09-19T02:38:06;16.50;99.90
2463;DHT22;1243;54.298;10.172;2023-09-19T02:40:37;16.40;99.90
2463;DHT22;1243;54.298;10.172;2023-09-19T02:43:03;16.40;99.90
2463;DHT22;1243;54.298;10.172;2023-09-19T02:45:29;16.30;99.90
2463;DHT22;1243;54.298;10.172;2023-09-19T02:47:55;16.30;99.90
2463;DHT22;1243;54.298;10.172;2023-09-19T02:50:21;16.30;99.90
2463;DHT22;1243;54.298;10.172;2023-09-19T02:52:47;16.20;99.90
2463;DHT22;1243;54.298;10.172;2023-09-19T02:55:17;16.20;99.90
2463;DHT22;1243;54.298;10.172;2023-09-19T02:57:48;16.10;99.90
2463;DHT22;1243;54.298;10.172;2023-09-19T03:00:15;16.10;99.90
2463;DHT22;1243;54.298;10.172;2023-09-19T03:02:41;16.10;99.90
2463;DHT22;1243;54.298;10.172;2023-09-19T03:05:08;16.10;99.90
2463;DHT22;1243;54.298;10.172;2023-09-19T03:07:36;16.10;99.90
2463;DHT22;1243;54.298;10.172;2023-09-19T03:10:05;16.10;99.90
2463;DHT22;1243;54.298;10.172;2023-09-19T03:12:31;16.10;99.90
2463;DHT22;1243;54.298;10.172;2023-09-19T03:14:57;16.10;99.90
2463;DHT22;1243;54.298;10.172;2023-09-19T03:17:23;16.10;99.90
2463;DHT22;1243;54.298;10.172;2023-09-19T03:19:48;16.10;99.90
2463;DHT22;1243;54.298;10.172;2023-09-19T03:22:15;16.10;99.90
2463;DHT22;1243;54.298;10.172;2023-09-19T03:24:41;16.10;99.90
2463;DHT22;1243;54.298;10.172;2023-09-19T03:27:12;16.10;99.90
2463;DHT22;1243;54.298;10.172;2023-09-19T03:29:39;16.10;99.90
2463;DHT22;1243;54.298;10.172;2023-09-19T03:32:05;16.10;99.90
2463;DHT22;1243;54.298;10.172;2023-09-19T03:34:31;16.10;99.90
2463;DHT22;1243;54.298;10.172;2023-09-19T03:36:56;16.10;99.90
2463;DHT22;1243;54.298;10.172;2023-09-19T03:39:23;16.10;99.90
2463;DHT22;1243;54.298;10.172;2023-09-19T03:41:48;16.10;99.90
2463;DHT22;1243;54.298;10.172;2023-09-19T03:44:15;16.10;99.90
2463;DHT22;1243;54.298;10.172;2023-09-19T03:46:41;16.00;99.90
2463;DHT22;1243;54.298;10.172;2023-09-19T03:49:06;16.00;99.90
2463;DHT22;1243;54.298;10.172;2023-09-19T03:51:32;16.00;99.90
2463;DHT22;1243;54.298;10.172;2023-09-19T03:53:59;15.90;99.90
2463;DHT22;1243;54.298;10.172;2023-09-19T03:56:25;15.90;99.90
2463;DHT22;1243;54.298;10.172;2023-09-19T03:58:51;15.90;99.90
2463;DHT22;1243;54.298;10.172;2023-09-19T04:01:16;15.90;97.90
2463;DHT22;1243;54.298;10.172;2023-09-19T04:03:44;15.90;94.20
2463;DHT22;1243;54.298;10.172;2023-09-19T04:06:16;15.80;94.10
2463;DHT22;1243;54.298;10.172;2023-09-19T04:08:42;15.80;94.10
2463;DHT22;1243;54.298;10.172;2023-09-19T04:11:09;15.70;94.10
2463;DHT22;1243;54.298;10.172;2023-09-19T04:13:36;15.70;94.10
2463;DHT22;1243;54.298;10.172;2023-09-19T04:16:02;15.70;94.20
2463;DHT22;1243;54.298;10.172;2023-09-19T04:18:32;15.60;94.10
2463;DHT22;1243;54.298;10.172;2023-09-19T04:20:59;15.60;94.10
2463;DHT22;1243;54.298;10.172;2023-09-19T04:23:28;15.60;94.10
2463;DHT22;1243;54.298;10.172;2023-09-19T04:25:53;15.50;94.10
2463;DHT22;1243;54.298;10.172;2023-09-19T04:28:19;15.50;94.00
2463;DHT22;1243;54.298;10.172;2023-09-19T04:30:45;15.50;91.10
2463;DHT22;1243;54.298;10.172;2023-09-19T04:33:10;15.50;89.10
2463;DHT22;1243;54.298;10.172;2023-09-19T04:35:40;15.40;84.20
2463;DHT22;1243;54.298;10.172;2023-09-19T04:38:08;15.40;84.50
2463;DHT22;1243;54.298;10.172;2023-09-19T04:40:34;15.40;78.60
2463;DHT22;1243;54.298;10.172;2023-09-19T04:43:00;15.40;73.90
2463;DHT22;1243;54.298;10.172;2023-09-19T04:45:27;15.30;69.60
2463;DHT22;1243;54.298;10.172;2023-09-19T04:47:53;15.30;68.20
2463;DHT22;1243;54.298;10.172;2023-09-19T04:50:19;15.20;66.40
2463;DHT22;1243;54.298;10.172;2023-09-19T04:52:50;15.10;68.90
2463;DHT22;1243;54.298;10.172;2023-09-19T04:55:17;15.10;66.80
2463;DHT22;1243;54.298;10.172;2023-09-19T04:57:44;15.10;65.40
2463;DHT22;1243;54.298;10.172;2023-09-19T05:00:15;15.10;63.30
2463;DHT22;1243;54.298;10.172;2023-09-19T05:02:42;15.10;62.00
2463;DHT22;1243;54.298;10.172;2023-09-19T05:05:09;15.10;64.90
2463;DHT22;1243;54.298;10.172;2023-09-19T05:07:41;15.10;65.30
2463;DHT22;1243;54.298;10.172;2023-09-19T05:10:07;15.10;61.40
2463;DHT22;1243;54.298;10.172;2023-09-19T05:12:34;15.10;62.00
2463;DHT22;1243;54.298;10.172;2023-09-19T05:15:04;15.00;61.30
2463;DHT22;1243;54.298;10.172;2023-09-19T05:17:30;15.00;62.10
2463;DHT22;1243;54.298;10.172;2023-09-19T05:19:57;15.00;63.30
2463;DHT22;1243;54.298;10.172;2023-09-19T05:22:26;15.00;59.60
2463;DHT22;1243;54.298;10.172;2023-09-19T05:24:52;15.00;56.80
2463;DHT22;1243;54.298;10.172;2023-09-19T05:27:19;14.90;56.90
2463;DHT22;1243;54.298;10.172;2023-09-19T05:29:46;14.80;58.60
2463;DHT22;1243;54.298;10.172;2023-09-19T05:32:12;14.90;57.40
2463;DHT22;1243;54.298;10.172;2023-09-19T05:34:38;14.90;52.00
2463;DHT22;1243;54.298;10.172;2023-09-19T05:37:05;14.90;48.00
2463;DHT22;1243;54.298;10.172;2023-09-19T05:39:34;14.90;40.00
2463;DHT22;1243;54.298;10.172;2023-09-19T05:41:59;14.90;36.50
2463;DHT22;1243;54.298;10.172;2023-09-19T05:44:28;14.90;32.70
2463;DHT22;1243;54.298;10.172;2023-09-19T05:46:54;14.90;27.10
2463;DHT22;1243;54.298;10.172;2023-09-19T05:49:22;14.90;25.10
2463;DHT22;1243;54.298;10.172;2023-09-19T05:51:50;14.90;22.80
2463;DHT22;1243;54.298;10.172;2023-09-19T05:54:19;15.00;18.80
2463;DHT22;1243;54.298;10.172;2023-09-19T05:56:50;14.90;6.30
2463;DHT22;1243;54.298;10.172;2023-09-19T05:59:19;14.90;2.90
2463;DHT22;1243;54.298;10.172;2023-09-19T06:01:44;14.80;1.00
2463;DHT22;1243;54.298;10.172;2023-09-19T06:04:11;14.70;1.00
2463;DHT22;1243;54.298;10.172;2023-09-19T06:06:37;14.80;1.00
2463;DHT22;1243;54.298;10.172;2023-09-19T06:09:05;14.80;1.00
2463;DHT22;1243;54.298;10.172;2023-09-19T06:11:31;14.80;1.00
2463;DHT22;1243;54.298;10.172;2023-09-19T06:14:01;14.80;1.00
2463;DHT22;1243;54.298;10.172;2023-09-19T06:16:28;14.90;1.00
2463;DHT22;1243;54.298;10.172;2023-09-19T06:18:55;14.90;1.00
2463;DHT22;1243;54.298;10.172;2023-09-19T06:21:25;15.00;1.00
2463;DHT22;1243;54.298;10.172;2023-09-19T06:23:52;14.90;1.00
2463;DHT22;1243;54.298;10.172;2023-09-19T06:26:18;14.90;1.00
2463;DHT22;1243;54.298;10.172;2023-09-19T06:28:44;14.90;1.00
2463;DHT22;1243;54.298;10.172;2023-09-19T06:31:10;14.90;1.00
2463;DHT22;1243;54.298;10.172;2023-09-19T06:33:37;14.90;1.00
2463;DHT22;1243;54.298;10.172;2023-09-19T06:36:06;15.00;1.00
2463;DHT22;1243;54.298;10.172;2023-09-19T06:41:08;15.10;1.00
2463;DHT22;1243;54.298;10.172;2023-09-19T06:43:37;15.10;1.00
2463;DHT22;1243;54.298;10.172;2023-09-19T06:46:05;15.20;1.00
2463;DHT22;1243;54.298;10.172;2023-09-19T06:48:33;15.20;1.00
2463;DHT22;1243;54.298;10.172;2023-09-19T06:50:59;15.20;1.00
2463;DHT22;1243;54.298;10.172;2023-09-19T06:53:35;15.20;1.00
2463;DHT22;1243;54.298;10.172;2023-09-19T06:56:02;15.20;1.00
2463;DHT22;1243;54.298;10.172;2023-09-19T06:58:28;15.20;1.00
2463;DHT22;1243;54.298;10.172;2023-09-19T07:00:54;15.30;1.00
2463;DHT22;1243;54.298;10.172;2023-09-19T07:03:20;15.30;1.00
2463;DHT22;1243;54.298;10.172;2023-09-19T07:05:48;15.30;1.00
2463;DHT22;1243;54.298;10.172;2023-09-19T07:08:15;15.30;1.00
2463;DHT22;1243;54.298;10.172;2023-09-19T07:10:41;15.40;1.00
2463;DHT22;1243;54.298;10.172;2023-09-19T07:13:18;15.40;1.00
2463;DHT22;1243;54.298;10.172;2023-09-19T07:15:45;15.40;1.00
2463;DHT22;1243;54.298;10.172;2023-09-19T07:18:18;15.50;1.00
2463;DHT22;1243;54.298;10.172;2023-09-19T07:20:45;15.50;1.00
2463;DHT22;1243;54.298;10.172;2023-09-19T07:23:19;15.40;1.00
2463;DHT22;1243;54.298;10.172;2023-09-19T07:25:50;15.40;1.00
2463;DHT22;1243;54.298;10.172;2023-09-19T07:28:17;15.50;1.00
2463;DHT22;1243;54.298;10.172;2023-09-19T07:30:43;15.50;1.00
2463;DHT22;1243;54.298;10.172;2023-09-19T07:33:10;15.60;1.00
2463;DHT22;1243;54.298;10.172;2023-09-19T07:35:38;15.60;1.00
2463;DHT22;1243;54.298;10.172;2023-09-19T07:38:07;15.70;1.00
2463;DHT22;1243;54.298;10.172;2023-09-19T07:40:33;15.60;1.00
2463;DHT22;1243;54.298;10.172;2023-09-19T07:42:59;15.60;1.00
2463;DHT22;1243;54.298;10.172;2023-09-19T07:45:29;15.50;1.00
2463;DHT22;1243;54.298;10.172;2023-09-19T07:47:56;15.50;1.00
2463;DHT22;1243;54.298;10.172;2023-09-19T07:50:22;15.60;1.00
2463;DHT22;1243;54.298;10.172;2023-09-19T07:52:49;15.50;1.00
2463;DHT22;1243;54.298;10.172;2023-09-19T07:55:21;15.60;1.00
2463;DHT22;1243;54.298;10.172;2023-09-19T07:57:50;15.60;1.00
2463;DHT22;1243;54.298;10.172;2023-09-19T08:00:16;15.70;1.00
2463;DHT22;1243;54.298;10.172;2023-09-19T08:02:43;15.70;1.00
2463;DHT22;1243;54.298;10.172;2023-09-19T08:08:27;15.80;1.00
2463;DHT22;1243;54.298;10.172;2023-09-19T08:10:55;15.80;1.00
2463;DHT22;1243;54.298;10.172;2023-09-19T08:13:24;15.90;1.00
2463;DHT22;1243;54.298;10.172;2023-09-19T08:15:52;15.90;1.00
2463;DHT22;1243;54.298;10.172;2023-09-19T08:18:20;15.90;1.00
2463;DHT22;1243;54.298;10.172;2023-09-19T08:20:52;16.00;1.00
2463;DHT22;1243;54.298;10.172;2023-09-19T08:23:19;16.00;1.00
2463;DHT22;1243;54.298;10.172;2023-09-19T08:25:47;16.00;1.00
2463;DHT22;1243;54.298;10.172;2023-09-19T08:28:13;16.10;1.00
2463;DHT22;1243;54.298;10.172;2023-09-19T08:30:46;16.10;1.00
2463;DHT22;1243;54.298;10.172;2023-09-19T08:33:14;16.20;1.00
2463;DHT22;1243;54.298;10.172;2023-09-19T08:35:43;16.30;1.00
2463;DHT22;1243;54.298;10.172;2023-09-19T08:38:11;16.30;1.00
2463;DHT22;1243;54.298;10.172;2023-09-19T08:40:38;16.30;1.00
2463;DHT22;1243;54.298;10.172;2023-09-19T08:43:08;16.30;1.00
2463;DHT22;1243;54.298;10.172;2023-09-19T08:45:34;16.20;1.00
2463;DHT22;1243;54.298;10.172;2023-09-19T08:48:23;16.20;1.00
2463;DHT22;1243;54.298;10.172;2023-09-19T08:56:20;16.20;1.00
2463;DHT22;1243;54.298;10.172;2023-09-19T08:59:00;16.30;1.00
2463;DHT22;1243;54.298;10.172;2023-09-19T09:01:29;16.50;1.00
2463;DHT22;1243;54.298;10.172;2023-09-19T09:03:59;16.60;1.00
2463;DHT22;1243;54.298;10.172;2023-09-19T09:06:26;16.60;1.00
2463;DHT22;1243;54.298;10.172;2023-09-19T09:08:55;16.60;1.00
2463;DHT22;1243;54.298;10.172;2023-09-19T09:11:23;16.70;1.00
2463;DHT22;1243;54.298;10.172;2023-09-19T09:13:53;16.50;1.00
2463;DHT22;1243;54.298;10.172;2023-09-19T09:16:20;16.50;1.00
2463;DHT22;1243;54.298;10.172;2023-09-19T09:18:49;16.50;1.00
2463;DHT22;1243;54.298;10.172;2023-09-19T09:21:21;16.50;1.00
2463;DHT22;1243;54.298;10.172;2023-09-19T09:23:49;16.50;1.00
2463;DHT22;1243;54.298;10.172;2023-09-19T09:26:15;16.50;1.00
2463;DHT22;1243;54.298;10.172;2023-09-19T09:28:46;16.60;1.00
2463;DHT22;1243;54.298;10.172;2023-09-19T09:31:26;16.60;1.00
2463;DHT22;1243;54.298;10.172;2023-09-19T09:33:57;16.60;1.00
2463;DHT22;1243;54.298;10.172;2023-09-19T09:36:34;16.60;1.00
2463;DHT22;1243;54.298;10.172;2023-09-19T09:39:02;16.60;1.00
2463;DHT22;1243;54.298;10.172;2023-09-19T09:41:43;16.60;1.00
2463;DHT22;1243;54.298;10.172;2023-09-19T09:44:17;16.70;1.00
2463;DHT22;1243;54.298;10.172;2023-09-19T09:46:47;17.00;1.00
2463;DHT22;1243;54.298;10.172;2023-09-19T09:49:25;17.10;1.00
2463;DHT22;1243;54.298;10.172;2023-09-19T09:52:06;17.20;1.00
2463;DHT22;1243;54.298;10.172;2023-09-19T09:55:03;17.20;1.00
2463;DHT22;1243;54.298;10.172;2023-09-19T09:57:35;17.10;1.00
2463;DHT22;1243;54.298;10.172;2023-09-19T10:00:02;17.10;1.00
2463;DHT22;1243;54.298;10.172;2023-09-19T10:02:39;17.20;1.00
2463;DHT22;1243;54.298;10.172;2023-09-19T10:05:19;17.20;1.00
2463;DHT22;1243;54.298;10.172;2023-09-19T10:07:54;17.30;1.00
2463;DHT22;1243;54.298;10.172;2023-09-19T10:10:41;17.40;1.00
2463;DHT22;1243;54.298;10.172;2023-09-19T10:13:12;17.50;1.00
2463;DHT22;1243;54.298;10.172;2023-09-19T10:15:40;17.60;1.00
2463;DHT22;1243;54.298;10.172;2023-09-19T10:18:14;17.80;1.00
2463;DHT22;1243;54.298;10.172;2023-09-19T10:20:45;18.00;1.00
2463;DHT22;1243;54.298;10.172;2023-09-19T10:23:12;18.10;1.00
2463;DHT22;1243;54.298;10.172;2023-09-19T10:25:43;18.20;1.00
2463;DHT22;1243;54.298;10.172;2023-09-19T10:28:30;18.30;1.00
2463;DHT22;1243;54.298;10.172;2023-09-19T10:31:01;18.30;1.00
2463;DHT22;1243;54.298;10.172;2023-09-19T10:33:36;18.30;1.00
2463;DHT22;1243;54.298;10.172;2023-09-19T10:36:05;18.30;1.00
2463;DHT22;1243;54.298;10.172;2023-09-19T10:38:32;18.20;1.00
2463;DHT22;1243;54.298;10.172;2023-09-19T10:41:00;18.40;1.00
2463;DHT22;1243;54.298;10.172;2023-09-19T10:43:30;18.30;1.00
2463;DHT22;1243;54.298;10.172;2023-09-19T10:46:05;18.20;1.00
2463;DHT22;1243;54.298;10.172;2023-09-19T10:48:34;18.30;1.00
2463;DHT22;1243;54.298;10.172;2023-09-19T10:51:08;18.20;1.00
2463;DHT22;1243;54.298;10.172;2023-09-19T10:53:58;18.30;1.00
2463;DHT22;1243;54.298;10.172;2023-09-19T10:56:38;18.40;1.00
2463;DHT22;1243;54.298;10.172;2023-09-19T10:59:20;18.40;1.00
2463;DHT22;1243;54.298;10.172;2023-09-19T11:04:33;18.30;1.00
2463;DHT22;1243;54.298;10.172;2023-09-19T11:07:11;18.40;1.00
2463;DHT22;1243;54.298;10.172;2023-09-19T11:09:54;18.50;1.00
2463;DHT22;1243;54.298;10.172;2023-09-19T11:14:56;18.90;1.00
2463;DHT22;1243;54.298;10.172;2023-09-19T11:17:48;18.90;1.00
2463;DHT22;1243;54.298;10.172;2023-09-19T11:20:18;18.80;1.00
2463;DHT22;1243;54.298;10.172;2023-09-19T11:25:43;18.70;1.00
2463;DHT22;1243;54.298;10.172;2023-09-19T11:28:27;18.90;1.00
2463;DHT22;1243;54.298;10.172;2023-09-19T11:30:54;18.80;1.00
2463;DHT22;1243;54.298;10.172;2023-09-19T11:33:33;18.70;1.00
2463;DHT22;1243;54.298;10.172;2023-09-19T11:36:16;18.70;99.90
2463;DHT22;1243;54.298;10.172;2023-09-19T11:41:37;18.60;99.90
2463;DHT22;1243;54.298;10.172;2023-09-19T11:46:34;18.50;99.90
2463;DHT22;1243;54.298;10.172;2023-09-19T11:49:08;18.60;99.90
2463;DHT22;1243;54.298;10.172;2023-09-19T11:51:43;18.90;99.90
2463;DHT22;1243;54.298;10.172;2023-09-19T11:54:12;19.10;99.90
2463;DHT22;1243;54.298;10.172;2023-09-19T11:56:44;19.30;99.90
2463;DHT22;1243;54.298;10.172;2023-09-19T11:59:13;19.20;99.90
2463;DHT22;1243;54.298;10.172;2023-09-19T12:01:54;19.20;99.90
2463;DHT22;1243;54.298;10.172;2023-09-19T12:04:43;19.30;99.90
2463;DHT22;1243;54.298;10.172;2023-09-19T12:07:15;19.30;99.90
2463;DHT22;1243;54.298;10.172;2023-09-19T12:09:43;19.30;99.90
2463;DHT22;1243;54.298;10.172;2023-09-19T12:12:22;19.30;99.90
2463;DHT22;1243;54.298;10.172;2023-09-19T12:14:55;19.30;99.90
2463;DHT22;1243;54.298;10.172;2023-09-19T12:17:38;19.30;99.90
2463;DHT22;1243;54.298;10.172;2023-09-19T12:20:11;19.40;99.90
2463;DHT22;1243;54.298;10.172;2023-09-19T12:22:41;19.50;99.90
2463;DHT22;1243;54.298;10.172;2023-09-19T12:25:10;19.60;99.90
2463;DHT22;1243;54.298;10.172;2023-09-19T12:27:47;19.60;99.90
2463;DHT22;1243;54.298;10.172;2023-09-19T12:30:15;19.80;99.90
2463;DHT22;1243;54.298;10.172;2023-09-19T12:32:43;20.10;99.90
2463;DHT22;1243;54.298;10.172;2023-09-19T12:35:26;20.00;99.90
2463;DHT22;1243;54.298;10.172;2023-09-19T12:37:53;19.60;99.90
2463;DHT22;1243;54.298;10.172;2023-09-19T12:40:22;19.60;99.90
2463;DHT22;1243;54.298;10.172;2023-09-19T12:42:55;19.70;99.90
2463;DHT22;1243;54.298;10.172;2023-09-19T12:45:22;19.60;99.90
2463;DHT22;1243;54.298;10.172;2023-09-19T12:48:22;19.40;99.90
2463;DHT22;1243;54.298;10.172;2023-09-19T12:51:12;19.30;99.90
2463;DHT22;1243;54.298;10.172;2023-09-19T12:53:45;19.20;99.90
2463;DHT22;1243;54.298;10.172;2023-09-19T12:56:16;19.20;99.90
2463;DHT22;1243;54.298;10.172;2023-09-19T12:58:56;19.20;99.90
2463;DHT22;1243;54.298;10.172;2023-09-19T13:01:25;19.30;99.90
2463;DHT22;1243;54.298;10.172;2023-09-19T13:04:21;19.10;99.90
2463;DHT22;1243;54.298;10.172;2023-09-19T13:06:58;19.10;99.90
2463;DHT22;1243;54.298;10.172;2023-09-19T13:09:29;19.30;99.90
2463;DHT22;1243;54.298;10.172;2023-09-19T13:12:00;19.40;99.90
2463;DHT22;1243;54.298;10.172;2023-09-19T13:14:28;19.60;99.90
2463;DHT22;1243;54.298;10.172;2023-09-19T13:17:05;19.80;99.90
2463;DHT22;1243;54.298;10.172;2023-09-19T13:19:50;20.00;99.90
2463;DHT22;1243;54.298;10.172;2023-09-19T13:22:40;19.90;99.90
2463;DHT22;1243;54.298;10.172;2023-09-19T13:25:26;20.20;99.90
2463;DHT22;1243;54.298;10.172;2023-09-19T13:27:59;21.10;99.90
2463;DHT22;1243;54.298;10.172;2023-09-19T13:30:28;21.30;99.90
2463;DHT22;1243;54.298;10.172;2023-09-19T13:33:15;21.10;99.90
2463;DHT22;1243;54.298;10.172;2023-09-19T13:35:46;20.80;99.90
2463;DHT22;1243;54.298;10.172;2023-09-19T13:38:14;21.00;99.90
2463;DHT22;1243;54.298;10.172;2023-09-19T13:40:41;21.10;99.90
2463;DHT22;1243;54.298;10.172;2023-09-19T13:43:10;21.30;99.90
2463;DHT22;1243;54.298;10.172;2023-09-19T13:45:41;21.30;99.90
2463;DHT22;1243;54.298;10.172;2023-09-19T13:48:09;21.30;99.90
2463;DHT22;1243;54.298;10.172;2023-09-19T13:50:40;21.20;99.90
2463;DHT22;1243;54.298;10.172;2023-09-19T13:53:08;21.30;99.90
2463;DHT22;1243;54.298;10.172;2023-09-19T13:55:37;21.30;99.90
2463;DHT22;1243;54.298;10.172;2023-09-19T13:58:04;21.10;99.90
2463;DHT22;1243;54.298;10.172;2023-09-19T14:00:34;20.70;99.90
2463;DHT22;1243;54.298;10.172;2023-09-19T14:03:04;20.40;99.90
2463;DHT22;1243;54.298;10.172;2023-09-19T14:05:32;20.30;99.90
2463;DHT22;1243;54.298;10.172;2023-09-19T14:07:58;20.20;99.90
2463;DHT22;1243;54.298;10.172;2023-09-19T14:10:26;20.00;99.90
2463;DHT22;1243;54.298;10.172;2023-09-19T14:12:53;19.80;99.90
2463;DHT22;1243;54.298;10.172;2023-09-19T14:15:19;19.70;99.90
2463;DHT22;1243;54.298;10.172;2023-09-19T14:17:46;19.60;99.90
2463;DHT22;1243;54.298;10.172;2023-09-19T14:20:13;19.50;99.90
2463;DHT22;1243;54.298;10.172;2023-09-19T14:22:42;19.50;99.90
2463;DHT22;1243;54.298;10.172;2023-09-19T14:25:10;19.50;99.90
2463;DHT22;1243;54.298;10.172;2023-09-19T14:27:36;19.20;99.90
2463;DHT22;1243;54.298;10.172;2023-09-19T14:30:03;18.90;99.90
2463;DHT22;1243;54.298;10.172;2023-09-19T14:32:30;18.90;99.90
2463;DHT22;1243;54.298;10.172;2023-09-19T14:34:59;18.90;99.90
2463;DHT22;1243;54.298;10.172;2023-09-19T14:37:27;18.90;99.90
2463;DHT22;1243;54.298;10.172;2023-09-19T14:39:55;18.80;99.90
2463;DHT22;1243;54.298;10.172;2023-09-19T14:42:23;18.80;99.90
2463;DHT22;1243;54.298;10.172;2023-09-19T14:44:51;18.70;99.90
2463;DHT22;1243;54.298;10.172;2023-09-19T14:47:19;18.70;99.90
2463;DHT22;1243;54.298;10.172;2023-09-19T14:49:46;18.60;99.90
2463;DHT22;1243;54.298;10.172;2023-09-19T14:52:13;18.50;99.90
2463;DHT22;1243;54.298;10.172;2023-09-19T14:54:42;18.50;99.90
2463;DHT22;1243;54.298;10.172;2023-09-19T14:57:10;18.50;99.90
2463;DHT22;1243;54.298;10.172;2023-09-19T14:59:37;18.40;99.90
2463;DHT22;1243;54.298;10.172;2023-09-19T15:02:04;18.40;99.90
2463;DHT22;1243;54.298;10.172;2023-09-19T15:04:31;18.30;99.90
2463;DHT22;1243;54.298;10.172;2023-09-19T15:06:57;18.30;99.90
2463;DHT22;1243;54.298;10.172;2023-09-19T15:09:25;18.30;99.90
2463;DHT22;1243;54.298;10.172;2023-09-19T15:11:55;18.30;99.90
2463;DHT22;1243;54.298;10.172;2023-09-19T15:14:24;18.20;99.90
2463;DHT22;1243;54.298;10.172;2023-09-19T15:16:55;18.20;99.90
2463;DHT22;1243;54.298;10.172;2023-09-19T15:19:22;18.30;99.90
2463;DHT22;1243;54.298;10.172;2023-09-19T15:21:49;18.30;99.90
2463;DHT22;1243;54.298;10.172;2023-09-19T15:24:15;18.40;99.90
2463;DHT22;1243;54.298;10.172;2023-09-19T15:26:43;18.40;99.90
2463;DHT22;1243;54.298;10.172;2023-09-19T15:29:10;18.40;99.90
2463;DHT22;1243;54.298;10.172;2023-09-19T15:31:38;18.40;99.90
2463;DHT22;1243;54.298;10.172;2023-09-19T15:34:04;18.40;99.90
2463;DHT22;1243;54.298;10.172;2023-09-19T15:36:33;18.30;99.90
2463;DHT22;1243;54.298;10.172;2023-09-19T15:39:06;18.20;99.90
2463;DHT22;1243;54.298;10.172;2023-09-19T15:41:37;18.20;99.90
2463;DHT22;1243;54.298;10.172;2023-09-19T15:44:10;18.20;99.90
2463;DHT22;1243;54.298;10.172;2023-09-19T15:46:39;18.20;99.90
2463;DHT22;1243;54.298;10.172;2023-09-19T15:49:10;18.10;99.90
2463;DHT22;1243;54.298;10.172;2023-09-19T15:51:36;18.10;99.90
2463;DHT22;1243;54.298;10.172;2023-09-19T15:54:10;18.00;99.90
2463;DHT22;1243;54.298;10.172;2023-09-19T15:56:38;18.00;99.90
2463;DHT22;1243;54.298;10.172;2023-09-19T15:59:10;17.90;99.90
2463;DHT22;1243;54.298;10.172;2023-09-19T16:01:39;17.90;99.90
2463;DHT22;1243;54.298;10.172;2023-09-19T16:04:09;17.90;99.90
2463;DHT22;1243;54.298;10.172;2023-09-19T16:06:36;18.00;99.90
2463;DHT22;1243;54.298;10.172;2023-09-19T16:09:06;17.90;99.90
2463;DHT22;1243;54.298;10.172;2023-09-19T16:11:35;17.80;99.90
2463;DHT22;1243;54.298;10.172;2023-09-19T16:14:02;17.80;99.90
2463;DHT22;1243;54.298;10.172;2023-09-19T16:16:28;17.90;99.90
2463;DHT22;1243;54.298;10.172;2023-09-19T16:19:02;17.80;99.90
2463;DHT22;1243;54.298;10.172;2023-09-19T16:21:32;17.80;99.90
2463;DHT22;1243;54.298;10.172;2023-09-19T16:24:01;17.80;99.90
2463;DHT22;1243;54.298;10.172;2023-09-19T16:26:28;17.90;99.90
2463;DHT22;1243;54.298;10.172;2023-09-19T16:28:57;17.80;99.90
2463;DHT22;1243;54.298;10.172;2023-09-19T16:31:28;17.80;99.90
2463;DHT22;1243;54.298;10.172;2023-09-19T16:33:55;17.80;99.90
2463;DHT22;1243;54.298;10.172;2023-09-19T16:36:25;17.80;99.90
2463;DHT22;1243;54.298;10.172;2023-09-19T16:38:51;17.90;99.90
2463;DHT22;1243;54.298;10.172;2023-09-19T16:41:18;17.80;99.90
2463;DHT22;1243;54.298;10.172;2023-09-19T16:43:46;17.90;99.90
2463;DHT22;1243;54.298;10.172;2023-09-19T16:46:14;17.90;99.90
2463;DHT22;1243;54.298;10.172;2023-09-19T16:48:47;17.90;99.90
2463;DHT22;1243;54.298;10.172;2023-09-19T16:51:15;17.90;99.90
2463;DHT22;1243;54.298;10.172;2023-09-19T16:53:41;17.90;99.90
2463;DHT22;1243;54.298;10.172;2023-09-19T16:56:10;17.90;99.90